METAR Data
IDs: Format: Raw Decoded Include TAF

Data at: 0132 UTC 06 Dec 2019

KMLF 060052Z AUTO 23006KT 10SM OVC050 05/02 A3020 RMK AO2 SLP223 T00500017
KMLF 052352Z AUTO 22007KT 10SM OVC049 07/02 A3018 RMK AO2 SLP214 T00670017 10078 20044 53014
KMLF 052252Z AUTO 21007KT 10SM OVC050 07/02 A3016 RMK AO2 SLP209 T00720017
KMLF 052152Z AUTO 22010KT 10SM SCT049 08/02 A3014 RMK AO2 SLP201 T00780022
KMLF 052052Z AUTO 21010KT 10SM CLR 07/02 A3013 RMK AO2 WSHFT 2019 SLP198 T00720022 50000
KMLF 052033Z AUTO 21011KT 10SM CLR 07/02 A3013 RMK AO2 WSHFT 2019 T00720022
KMLF 052031Z AUTO 22010KT 10SM CLR 07/02 A3013 RMK AO2 WSHFT 2017 T00720022
KMLF 052029Z AUTO 21012KT 10SM CLR 07/02 A3013 RMK AO2 WSHFT 2015 T00720022
KMLF 051952Z AUTO 21012KT 10SM CLR 07/02 A3013 RMK AO2 SLP200 T00670022
KMLF 051852Z AUTO 21010KT 10SM CLR 05/02 A3013 RMK AO2 SLP203 T00500022
KMLF 051752Z AUTO 20010KT 10SM SCT015 04/02 A3013 RMK AO2 WSHFT 1727 SLP202 T00440017 10050 20017 51027
KMLF 051745Z AUTO 19011KT 10SM SCT015 04/02 A3013 RMK AO2 WSHFT 1727 T00440017
KMLF 051737Z AUTO 20012KT 10SM BKN015 04/01 A3013 RMK AO2 WSHFT 1719 T00390011
KMLF 051732Z AUTO 20010KT 10SM SCT015 04/01 A3013 RMK AO2 WSHFT 1718 T00390011
KMLF 051652Z AUTO 18006KT 10SM FEW013 04/02 A3011 RMK AO2 SLP196 T00390017
KMLF 051552Z AUTO 20009KT 10SM OVC016 03/01 A3008 RMK AO2 SLP188 T00280011
KMLF 051452Z AUTO 19008KT 10SM OVC015 02/01 A3004 RMK AO2 WSHFT 1404 SLP177 T00220006 53023
KMLF 051422Z AUTO 19010KT 10SM OVC016 03/01 A3002 RMK AO2 WSHFT 1404 T00280006
KMLF 051417Z AUTO 19010KT 10SM OVC016 03/01 A3001 RMK AO2 WSHFT 1403 T00280006
KMLF 051415Z AUTO 19011KT 10SM OVC016 03/01 A3001 RMK AO2 WSHFT 1401 T00280006
KMLF 051352Z AUTO 18009KT 10SM OVC016 02/00 A3000 RMK AO2 WSHFT 1333 SLP165 T00170000
KMLF 051347Z AUTO 19010KT 10SM BKN016 02/00 A3000 RMK AO2 WSHFT 1333 T00170000
KMLF 051304Z AUTO 21010KT 10SM BKN016 02/01 A2998 RMK AO2 WSHFT 1246 T00220006
KMLF 051259Z AUTO 20011KT 10SM BKN017 02/00 A2997 RMK AO2 WSHFT 1245 T00220000
KMLF 051257Z AUTO 20011KT 10SM BKN017 02/00 A2997 RMK AO2 WSHFT 1243 T00220000
KMLF 051252Z AUTO 20010KT 10SM BKN017 02/00 A2997 RMK AO2 WSHFT 1234 SLP151 T00220000
KMLF 051248Z AUTO 20011KT 10SM SCT017 02/00 A2996 RMK AO2 WSHFT 1234
KMLF 051246Z AUTO 19011KT 10SM SCT017 02/00 A2996 RMK AO2 WSHFT 1232 T00220000
KMLF 051244Z AUTO 19011KT 10SM SCT016 02/00 A2996 RMK AO2 WSHFT 1230 T00220000
KMLF 051242Z AUTO 19011KT 10SM SCT016 02/00 A2996 RMK AO2 WSHFT 1228 T00170000
KMLF 051233Z AUTO 20010KT 10SM FEW016 SCT090 02/00 A2996 RMK AO2 WSHFT 1219 T00170000
KMLF 051231Z AUTO 19010KT 10SM FEW011 FEW016 SCT090 02/00 A2996 RMK AO2 WSHFT 1217 T00170000
KMLF 051229Z AUTO 19010KT 10SM FEW011 FEW090 02/00 A2996 RMK AO2 WSHFT 1215 T00170000
KMLF 051227Z AUTO 19010KT 10SM FEW011 SCT090 02/00 A2996 RMK AO2 WSHFT 1213 T00170000
KMLF 051218Z AUTO 20011KT 10SM SCT011 BKN090 02/00 A2996 RMK AO2 WSHFT 1204 T00170000
KMLF 051216Z AUTO 20011KT 10SM BKN011 BKN090 02/00 A2996 RMK AO2 WSHFT 1202 T00170000
KMLF 051214Z AUTO 19012KT 10SM BKN011 BKN090 02/00 A2996 RMK AO2 WSHFT 1200 T00170000
KMLF 051212Z AUTO 20012KT 10SM BKN011 BKN090 02/00 A2996 RMK AO2 WSHFT 1158 T00170000
KMLF 051207Z AUTO 20012KT 10SM OVC011 02/00 A2996 RMK AO2 WSHFT 1149 T00170000
KMLF 051202Z AUTO 20010KT 10SM OVC011 02/01 A2996 RMK AO2 WSHFT 1148 T00220006
KMLF 051152Z AUTO 19011KT 10SM BKN011 02/01 A2996 RMK AO2 WSHFT 1131 SLP146 60005 70020 T00220006 10028 20011 51003
KMLF 051149Z AUTO 20011KT 10SM BKN011 02/01 A2996 RMK AO2 WSHFT 1131
KMLF 051144Z AUTO 20011G21KT 10SM SCT011 03/01 A2996 RMK AO2 WSHFT 1130 T00280006
KMLF 051142Z AUTO 19014KT 10SM FEW011 03/01 A2996 RMK AO2 WSHFT 1128 T00280006
KMLF 051133Z AUTO 20012KT 10SM CLR 02/00 A2995 RMK AO2 WSHFT 1119 T00220000
KMLF 051131Z AUTO 20013KT 10SM CLR 02/00 A2995 RMK AO2 WSHFT 1117 T00220000
KMLF 051129Z AUTO 20013G22KT 10SM CLR 02/00 A2995 RMK AO2 WSHFT 1115 T00220000
KMLF 051127Z AUTO 20012G22KT 10SM CLR 03/01 A2995 RMK AO2 WSHFT 1113 T00280006
KMLF 051122Z AUTO 19015KT 10SM CLR 03/01 A2995 RMK AO2 WSHFT 1104 T00280006
KMLF 051117Z AUTO 19017KT 10SM CLR 03/01 A2995 RMK AO2 WSHFT 1103 T00280006
KMLF 051115Z AUTO 18015KT 10SM FEW085 03/01 A2995 RMK AO2 WSHFT 1101 T00280006
KMLF 051052Z AUTO 19009KT 10SM SCT009 BKN085 02/01 A2995 RMK AO2 WSHFT 1018 SLP144 T00170006
KMLF 051036Z AUTO 18010KT 10SM BKN008 02/01 A2995 RMK AO2 WSHFT 1018 T00170006
KMLF 051031Z AUTO 18010KT 10SM BKN008 OVC075 02/01 A2995 RMK AO2 WSHFT 1017 T00170006
KMLF 051029Z AUTO 18012KT 10SM BKN008 OVC080 02/01 A2995 RMK AO2 WSHFT 1015 T00170006
KMLF 051027Z AUTO 18011KT 10SM BKN008 OVC080 02/00 A2995 RMK AO2 WSHFT 1013 T00170000
KMLF 051018Z AUTO 18011KT 10SM OVC008 02/01 A2994 RMK AO2 WSHFT 1004 T00170006
KMLF 051016Z AUTO 19013KT 10SM OVC008 02/01 A2994 RMK AO2 WSHFT 1002 T00170006
KMLF 051014Z AUTO 19014KT 10SM BKN008 OVC080 02/00 A2994 RMK AO2 WSHFT 1000 T00170000
KMLF 051012Z AUTO 18014KT 10SM BKN010 OVC080 02/00 A2994 RMK AO2 WSHFT 0958 CIG 007V011 T00170000
KMLF 051003Z AUTO 18017KT 10SM BKN010 BKN013 OVC080 02/01 A2994 RMK AO2 WSHFT 0949 CIG 008V012 T00170006
KMLF 051001Z AUTO 18015KT 10SM BKN010 OVC013 02/01 A2994 RMK AO2 WSHFT 0947 CIG 008V012 T00170006
KMLF 050959Z AUTO 18016KT 10SM BKN010 OVC013 02/01 A2994 RMK AO2 WSHFT 0945 T00170006
KMLF 050957Z AUTO 18015KT 10SM BKN010 BKN013 02/01 A2995 RMK AO2 WSHFT 0943 T00220006
KMLF 050952Z AUTO 18016KT 10SM BKN010 OVC070 02/01 A2995 RMK AO2 WSHFT 0934 RAE14 CIG 009V014 SLP143 P0000 T00220006
KMLF 050948Z AUTO 18014KT 10SM BKN012 OVC070 02/01 A2995 RMK AO2 WSHFT 0934 RAE14 P0000
KMLF 050946Z AUTO 18013KT 10SM BKN012 OVC070 02/01 A2995 RMK AO2 WSHFT 0932 RAE14 P0000 T00170006
KMLF 050944Z AUTO 18012KT 10SM BKN012 BKN070 02/00 A2994 RMK AO2 WSHFT 0930 RAE14 P0000 T00170000
KMLF 050942Z AUTO 18011KT 10SM SCT012 BKN070 02/00 A2994 RMK AO2 WSHFT 0928 RAE14 P0000 T00170000
KMLF 050933Z AUTO 18013KT 10SM BKN070 BKN090 01/00 A2994 RMK AO2 WSHFT 0919 RAE14 P0000 T00110000
KMLF 050931Z AUTO 17013KT 10SM BKN070 BKN090 01/00 A2994 RMK AO2 WSHFT 0917 RAE14 P0000 T00110000
KMLF 050929Z AUTO 17014KT 10SM FEW039 BKN070 OVC100 01/00 A2994 RMK AO2 WSHFT 0915 RAE14 P0000 T00110000
KMLF 050927Z AUTO 17014KT 10SM FEW006 BKN070 OVC090 01/00 A2994 RMK AO2 WSHFT 0913 RAE14 P0000 T00110000
KMLF 050918Z AUTO 16015KT 10SM FEW006 BKN075 OVC095 01/00 A2994 RMK AO2 WSHFT 0904 RAE14 P0000 T00110000
KMLF 050916Z AUTO 16015KT 10SM FEW006 BKN075 OVC095 01/00 A2993 RMK AO2 WSHFT 0902 RAE14 P0000 T00110000
KMLF 050914Z AUTO 16014KT 10SM FEW006 BKN045 OVC090 01/00 A2993 RMK AO2 WSHFT 0900 RAE14 P0000 T00110000
KMLF 050912Z AUTO 16013KT 10SM -RA FEW006 BKN047 OVC095 01/00 A2993 RMK AO2 WSHFT 0858 P0000 T00110000
KMLF 050903Z AUTO 16013KT 8SM -RA SCT006 OVC035 01/00 A2994 RMK AO2 WSHFT 0849 P0000 T00110000
KMLF 050901Z AUTO 16012KT 8SM -RA SCT006 OVC035 01/00 A2993 RMK AO2 WSHFT 0847 P0000 T00110000
KMLF 050859Z AUTO 16014KT 8SM -RA SCT006 OVC035 01/00 A2993 RMK AO2 WSHFT 0845 P0000 T00110000
KMLF 050857Z AUTO 16013KT 8SM -RA SCT006 SCT026 OVC035 02/01 A2994 RMK AO2 WSHFT 0843 P0000 T00170006
KMLF 050852Z AUTO 17011KT 9SM -RA FEW006 FEW026 OVC035 02/01 A2993 RMK AO2 WSHFT 0818 SLP140 P0005 60005 T00170006 53008
KMLF 050836Z AUTO 17011KT 4SM -RA BR OVC024 02/01 A2993 RMK AO2 WSHFT 0818 P0004 T00170011
KMLF 050831Z AUTO 17010KT 5SM -RA BR FEW022 OVC026 02/01 A2993 RMK AO2 WSHFT 0817 P0004 T00220011
KMLF 050829Z AUTO 18010KT 5SM -RA BR OVC026 02/01 A2993 RMK AO2 WSHFT 0815 P0004 T00220011
KMLF 050752Z AUTO 21008KT 4SM -RA BR FEW015 BKN023 OVC031 01/01 A2991 RMK AO2 RAB25 SLP137 P0000 T00110006
KMLF 050652Z AUTO 18008KT 4SM BR OVC020 02/01 A2991 RMK AO2 SLP137 T00170006 400281056
KMLF 050552Z AUTO 18007KT 3SM BR BKN019 BKN034 OVC050 02/01 A2991 RMK AO2 WSHFT 0514 RAE02B04E32 SLP135 P0000 60013 T00170006 10022 20011 53004
KMLF 050532Z AUTO 18010KT 4SM BR FEW023 BKN047 OVC065 02/01 A2991 RMK AO2 WSHFT 0514 RAE02B04E32 P0000 T00170006
KMLF 050527Z AUTO 17010KT 4SM -RA BR FEW025 BKN049 OVC070 02/01 A2991 RMK AO2 WSHFT 0513 RAE02B04 P0000 T00170006
KMLF 050518Z AUTO 18011KT 5SM BR BKN047 OVC070 02/01 A2990 RMK AO2 WSHFT 0504 RAE02B04E14 P0000 T00170006
KMLF 050516Z AUTO 19012KT 6SM BR BKN047 OVC070 02/01 A2990 RMK AO2 WSHFT 0502 RAE02B04E14 P0000 T00170006
KMLF 050514Z AUTO 19010KT 6SM BR BKN047 OVC070 02/01 A2990 RMK AO2 WSHFT 0500 RAE02B04E14 P0000 T00170006
KMLF 050512Z AUTO 19010KT 6SM -RA BR BKN047 OVC070 02/01 A2990 RMK AO2 WSHFT 0458 RAE02B04 P0000 T00170006
KMLF 050503Z AUTO 19010KT 6SM BR FEW032 OVC047 02/01 A2990 RMK AO2 WSHFT 0449 RAE02 P0000 T00220006
KMLF 050501Z AUTO 19010KT 6SM -RA BR FEW032 BKN045 OVC050 02/01 A2990 RMK AO2 WSHFT 0447 P0000 T00220006
KMLF 050459Z AUTO 20010KT 6SM -RA BR FEW032 BKN043 OVC050 02/01 A2990 RMK AO2 WSHFT 0445 P0000 T00170006
KMLF 050457Z AUTO 20011KT 6SM -RA BR FEW032 BKN043 OVC050 02/01 A2990 RMK AO2 WSHFT 0443 P0000 T00170006
KMLF 050452Z AUTO 20012KT 6SM -RA BR SCT032 BKN043 OVC050 02/01 A2990 RMK AO2 WSHFT 0434 RAB03E32B47 SLP133 P0000 T00170006
KMLF 050448Z AUTO 20012KT 6SM -RA BR FEW030 BKN043 OVC050 02/01 A2990 RMK AO2 WSHFT 0434 RAB03E32B47 P0000
KMLF 050446Z AUTO 20013KT 6SM BR FEW025 SCT035 OVC043 02/01 A2989 RMK AO2 WSHFT 0432 RAB03E32 P0000 T00170006
KMLF 050444Z AUTO 20012KT 6SM BR FEW026 BKN034 OVC055 02/01 A2989 RMK AO2 WSHFT 0430 RAB03E32 P0000 T00170006
KMLF 050442Z AUTO 20012KT 6SM BR FEW026 BKN034 OVC044 02/01 A2989 RMK AO2 WSHFT 0428 RAB03E32 P0000 T00170006
KMLF 050352Z AUTO 20005KT 1 3/4SM BR BKN003 BKN026 OVC110 01/00 A2988 RMK AO2 RAE33 SLP132 P0003 T00110000
KMLF 050340Z AUTO 19003KT 1 1/4SM BR BKN003 BKN014 OVC075 01/01 A2988 RMK AO2 RAE33 P0003 T00110006
KMLF 050335Z AUTO 18003KT 1 1/4SM BR SCT003 BKN014 OVC075 01/01 A2988 RMK AO2 RAE33 P0003 T00110006
KMLF 050252Z AUTO 23006KT 3SM -RA BR OVC029 01/00 A2989 RMK AO2 SLP139 P0003 60010 T00110000 53005
KMLF 050152Z AUTO 18005KT 3SM -RA BR OVC033 01/00 A2989 RMK AO2 SLP137 P0005 T00110000
KMLF 050052Z AUTO 07003KT 5SM -RA BR FEW039 BKN050 OVC075 01/00 A2988 RMK AO2 UPE2355RAB2355 SLP136 P0002 T00110000
KMLF 042352Z AUTO 01006KT 5SM UP BR FEW060 OVC080 02/00 A2988 RMK AO2 UPB45 SLP130 P0000 60002 T00170000 10028 21011 58026
KMLF 042252Z AUTO 01005KT 7SM OVC080 02/01 A2991 RMK AO2 RAE34UPB32E33 SLP141 P0002 T00220006
KMLF 042152Z AUTO 00000KT 9SM -RA BKN041 BKN055 OVC070 02/M01 A2993 RMK AO2 RAB13E22B51UPB22E26 SLP146 P0000 T00221006
KMLF 042052Z AUTO 00000KT 8SM OVC080 01/M01 A2996 RMK AO2 SLP157 T00111006 58029
KMLF 041952Z AUTO 22003KT 6SM BR SCT075 SCT090 OVC120 00/M01 A3000 RMK AO2 SLP170 T00001011
KMLF 041852Z AUTO 17006KT 4SM BR FEW003 M01/M02 A3004 RMK AO2 SLP183 T10061017
KMLF 041752Z AUTO 19006KT 1 3/4SM BR OVC001 M01/M02 A3006 RMK AO2 SLP196 I6001 T10111022 11011 21056 58004
KMLF 041746Z AUTO 19005KT 1 3/4SM BR OVC001 M01/M02 A3006 RMK AO2 T10111022
KMLF 041744Z AUTO 20005KT 1 1/4SM BR OVC001 M01/M02 A3006 RMK AO2 T10111022
KMLF 041733Z AUTO 21004KT 1/2SM FZFG VV001 M02/M03 A3006 RMK AO2 T10171028
KMLF 041716Z AUTO 19004KT 1/4SM FZFG VV001 M02/M03 A3006 RMK AO2 T10221033
KMLF 041652Z AUTO 21003KT 1/4SM FZFG VV001 M02/M03 A3007 RMK AO2 SLP200 I1001 T10221028
KMLF 041650Z AUTO 20003KT 1/4SM FZFG VV001 M02/M03 A3007 RMK AO2 I1001
KMLF 041644Z AUTO 19004KT 1/4SM FZFG VV001 M02/M03 A3007 RMK AO2 I1001 T10221033
KMLF 041552Z AUTO 17004KT M1/4SM FZFG VV001 M03/M04 A3008 RMK AO2 SLP208 I1000 T10331044
KMLF 041533Z AUTO 18006KT 3/4SM BR VV002 M04/M05 A3008 RMK AO2 T10391050
KMLF 041502Z AUTO 26007KT 8SM BKN002 M05/M06 A3008 RMK AO2 T10501061
KMLF 041452Z AUTO 26005KT 1/4SM FZFG VV001 M05/M06 A3007 RMK AO2 SLP209 I1000 I3000 T10501061 56005
KMLF 041408Z AUTO 00000KT 3/4SM BR VV001 M05/M07 A3008 RMK AO2 T10501067
KMLF 041352Z AUTO 00000KT 4SM BR BKN001 BKN120 M05/M06 A3008 RMK AO2 SLP211 I1000 T10501061